Time;durP1;ratioP1;P1;durP2;ratioP2;P2;SDS_P1;SDS_P2;PMS_P1;PMS_P2;Temp;Humidity;BMP_temperature;BMP_pressure;BME280_temperature;BME280_humidity;BME280_pressure;Samples;Min_cycle;Max_cycle;Signal;HPM_P1;HPM_P2
2021/12/15 00:00:17;;;;;;;3.83;2.60;;;22.40;36.00;;;;;;5074314;28;20864;-68
2021/12/15 00:02:45;;;;;;;3.10;2.30;;;22.50;36.00;;;;;;5074193;28;20751;-68
2021/12/15 00:05:13;;;;;;;3.42;2.33;;;22.40;35.90;;;;;;5074245;28;20891;-68
2021/12/15 00:07:39;;;;;;;3.40;2.42;;;22.40;35.90;;;;;;5074102;28;20881;-68
2021/12/15 00:10:06;;;;;;;3.73;2.50;;;22.40;35.90;;;;;;5073992;28;20559;-67
2021/12/15 00:12:32;;;;;;;3.38;2.33;;;22.40;35.90;;;;;;5055448;28;20376;-67
2021/12/15 00:14:58;;;;;;;3.80;2.50;;;22.40;35.90;;;;;;5074303;28;20902;-68
2021/12/15 00:17:24;;;;;;;3.63;2.50;;;22.40;35.90;;;;;;5074421;28;20395;-68
2021/12/15 00:19:50;;;;;;;2.60;2.30;;;22.40;35.90;;;;;;5074071;28;20948;-68
2021/12/15 00:22:16;;;;;;;3.40;2.30;;;22.40;35.90;;;;;;5074122;28;20913;-67
2021/12/15 00:24:42;;;;;;;3.60;2.50;;;22.40;35.90;;;;;;5073777;28;20392;-67
2021/12/15 00:27:08;;;;;;;3.22;2.20;;;22.40;35.90;;;;;;5055872;28;20408;-68
2021/12/15 00:29:34;;;;;;;2.90;2.30;;;22.40;35.90;;;;;;5073926;28;20387;-68
2021/12/15 00:32:03;;;;;;;3.50;2.30;;;22.40;35.80;;;;;;5073829;28;20376;-68
2021/12/15 00:34:32;;;;;;;3.38;2.60;;;22.40;35.90;;;;;;5073009;28;21144;-67
2021/12/15 00:36:58;;;;;;;3.10;2.17;;;22.30;35.80;;;;;;5073258;28;20391;-68
2021/12/15 00:39:25;;;;;;;3.20;2.50;;;22.30;35.80;;;;;;5055699;28;20400;-68
2021/12/15 00:41:50;;;;;;;2.83;2.28;;;22.30;35.80;;;;;;5073413;28;20457;-68
2021/12/15 00:44:16;;;;;;;3.70;2.40;;;22.30;35.80;;;;;;5073624;28;20405;-68
2021/12/15 00:46:42;;;;;;;3.15;2.40;;;22.30;35.70;;;;;;5073143;28;20402;-68
2021/12/15 00:49:09;;;;;;;4.00;2.38;;;22.30;35.70;;;;;;5073408;28;20411;-68
2021/12/15 00:51:39;;;;;;;3.00;2.22;;;22.30;35.70;;;;;;5073552;28;20419;-68
2021/12/15 00:54:06;;;;;;;2.63;2.10;;;22.30;35.70;;;;;;5073464;28;20423;-68
2021/12/15 00:56:34;;;;;;;3.60;1.95;;;22.30;35.70;;;;;;5072790;28;20443;-67
2021/12/15 00:59:00;;;;;;;2.78;2.10;;;22.20;35.60;;;;;;5073342;28;20384;-68
2021/12/15 01:01:27;;;;;;;3.13;2.30;;;22.20;35.60;;;;;;5073261;28;20384;-68
2021/12/15 01:03:53;;;;;;;2.83;2.25;;;22.30;35.70;;;;;;5072894;28;20526;-68
2021/12/15 01:06:21;;;;;;;3.42;2.33;;;22.20;35.60;;;;;;5072752;28;20421;-67
2021/12/15 01:08:54;;;;;;;3.08;2.20;;;22.20;35.60;;;;;;5072691;28;20419;-67
2021/12/15 01:19:51;;;;;;;3.05;2.10;;;22.20;35.50;;;;;;5073115;28;20387;-68
2021/12/15 01:22:28;;;;;;;2.70;1.90;;;22.20;35.50;;;;;;5072808;28;20392;-68
2021/12/15 01:24:58;;;;;;;2.90;2.33;;;22.20;35.50;;;;;;5072587;28;20941;-68
2021/12/15 01:27:25;;;;;;;2.57;2.20;;;22.20;35.50;;;;;;5072686;28;20889;-68
2021/12/15 01:29:50;;;;;;;2.42;2.00;;;22.20;35.50;;;;;;5072832;28;20400;-68
2021/12/15 01:32:16;;;;;;;2.37;1.97;;;22.20;35.50;;;;;;5072611;28;20429;-68
2021/12/15 01:34:43;;;;;;;2.53;2.03;;;22.20;35.60;;;;;;5072000;28;20752;-67
2021/12/15 01:37:09;;;;;;;2.30;1.95;;;22.10;35.50;;;;;;5072139;28;20466;-68
2021/12/15 01:39:34;;;;;;;2.88;2.22;;;22.10;35.50;;;;;;5054566;28;20487;-68
2021/12/15 01:42:00;;;;;;;2.60;2.10;;;22.10;35.50;;;;;;5072151;28;20411;-68
2021/12/15 01:46:58;;;;;;;2.88;2.15;;;22.10;35.50;;;;;;5072171;28;20380;-68
2021/12/15 01:49:37;;;;;;;2.80;2.35;;;22.10;35.40;;;;;;5072350;28;20399;-68
2021/12/15 01:52:13;;;;;;;2.88;2.00;;;22.10;35.50;;;;;;5072391;28;20431;-68
2021/12/15 01:54:41;;;;;;;2.45;2.10;;;22.10;35.30;;;;;;5071781;28;20457;-67
2021/12/15 01:57:09;;;;;;;2.90;2.20;;;22.10;35.40;;;;;;5072095;28;20387;-68
2021/12/15 01:59:35;;;;;;;2.83;1.85;;;22.10;35.40;;;;;;5072213;28;21000;-68
2021/12/15 02:02:02;;;;;;;2.67;2.00;;;22.10;35.40;;;;;;5054220;28;20487;-68
2021/12/15 02:04:28;;;;;;;2.80;2.10;;;22.00;35.40;;;;;;5071864;28;20483;-67
2021/12/15 02:06:54;;;;;;;2.28;2.00;;;22.10;35.40;;;;;;5071656;28;20395;-68
2021/12/15 02:12:01;;;;;;;2.55;1.90;;;22.10;35.50;;;;;;5071926;28;20379;-68
2021/12/15 02:14:30;;;;;;;2.72;2.20;;;22.00;35.40;;;;;;5071219;28;20387;-67
2021/12/15 02:16:56;;;;;;;2.47;2.10;;;22.00;35.40;;;;;;5071244;28;20485;-68
2021/12/15 02:19:22;;;;;;;2.90;2.05;;;22.00;35.40;;;;;;5071796;28;20392;-68
2021/12/15 02:21:48;;;;;;;2.63;2.03;;;22.00;35.30;;;;;;5071766;28;20391;-68
2021/12/15 02:24:14;;;;;;;3.03;1.90;;;22.00;35.30;;;;;;5070804;28;20442;-68
2021/12/15 02:26:45;;;;;;;3.03;2.10;;;22.00;35.30;;;;;;5070237;28;20462;-68
2021/12/15 02:29:16;;;;;;;2.50;1.70;;;22.00;35.30;;;;;;5070421;28;20932;-68
2021/12/15 02:34:43;;;;;;;2.50;1.70;;;22.00;35.30;;;;;;5071168;28;20387;-68
2021/12/15 02:37:17;;;;;;;2.97;1.88;;;22.00;35.40;;;;;;5071179;28;20392;-68
2021/12/15 02:39:43;;;;;;;2.33;1.90;;;22.00;35.30;;;;;;5071034;28;20775;-68
2021/12/15 02:42:09;;;;;;;2.72;2.10;;;22.00;35.30;;;;;;5071088;28;20416;-68
2021/12/15 02:44:35;;;;;;;2.00;1.80;;;21.90;35.30;;;;;;5071242;28;20752;-68
2021/12/15 02:47:01;;;;;;;2.40;1.90;;;21.90;35.30;;;;;;5071047;28;20387;-67
2021/12/15 02:49:28;;;;;;;2.70;2.00;;;21.90;35.20;;;;;;5071312;28;20394;-68
2021/12/15 02:51:56;;;;;;;2.90;2.03;;;21.90;35.20;;;;;;5053363;28;20390;-68
2021/12/15 02:54:24;;;;;;;2.60;2.13;;;21.90;35.20;;;;;;5053374;28;20400;-68
2021/12/15 02:56:52;;;;;;;2.83;2.08;;;21.90;35.20;;;;;;5071017;28;20868;-68
2021/12/15 02:59:31;;;;;;;2.17;1.90;;;21.90;35.20;;;;;;5071353;28;20392;-68
2021/12/15 03:02:06;;;;;;;2.47;2.08;;;21.90;35.20;;;;;;5071252;28;20395;-68
2021/12/15 03:04:44;;;;;;;2.70;2.00;;;21.90;35.20;;;;;;5053078;28;20400;-68
2021/12/15 03:07:18;;;;;;;2.72;2.10;;;21.90;35.30;;;;;;5055081;28;20392;-68
2021/12/15 03:18:23;;;;;;;2.55;2.22;;;21.90;35.30;;;;;;4989659;28;20887;-68
2021/12/15 03:21:03;;;;;;;2.30;1.90;;;21.90;35.20;;;;;;4989178;28;20784;-67
2021/12/15 03:23:30;;;;;;;2.67;1.92;;;21.80;35.20;;;;;;5042878;28;20388;-68
2021/12/15 03:25:58;;;;;;;2.53;2.05;;;21.90;35.20;;;;;;5071415;28;20872;-68
2021/12/15 03:36:34;;;;;;;3.20;2.40;;;21.80;35.20;;;;;;5074703;28;20419;-68
2021/12/15 03:39:00;;;;;;;2.60;2.15;;;21.80;35.20;;;;;;5056688;28;20452;-68
2021/12/15 03:41:26;;;;;;;2.63;2.13;;;21.80;35.10;;;;;;5074835;28;20801;-68
2021/12/15 03:43:51;;;;;;;2.75;2.10;;;21.80;35.20;;;;;;5074528;28;20395;-68
2021/12/15 03:46:17;;;;;;;3.10;2.30;;;21.80;35.20;;;;;;5074723;28;20867;-68
2021/12/15 03:48:44;;;;;;;3.28;2.33;;;21.80;35.10;;;;;;5056307;28;20411;-68
2021/12/15 03:51:13;;;;;;;2.95;2.20;;;21.80;35.10;;;;;;5074571;28;20449;-67
2021/12/15 03:53:39;;;;;;;2.78;2.30;;;21.80;35.10;;;;;;5074617;28;20396;-68
2021/12/15 03:56:08;;;;;;;3.25;2.42;;;21.80;35.10;;;;;;5074341;28;20415;-68
2021/12/15 03:58:33;;;;;;;2.90;2.40;;;21.80;35.10;;;;;;5075116;28;20883;-67
2021/12/15 04:01:04;;;;;;;2.95;2.30;;;21.80;35.10;;;;;;5074067;28;20402;-68
2021/12/15 04:03:37;;;;;;;2.92;2.53;;;21.80;35.20;;;;;;5074420;28;21013;-68
2021/12/15 04:06:05;;;;;;;4.33;2.67;;;21.80;35.10;;;;;;5074401;28;20475;-68
2021/12/15 04:08:34;;;;;;;4.38;2.70;;;21.90;35.60;;;;;;5055973;28;20424;-68
2021/12/15 04:11:02;;;;;;;5.88;2.80;;;21.90;35.20;;;;;;5073981;28;20392;-68
2021/12/15 04:13:28;;;;;;;6.78;2.80;;;21.90;35.10;;;;;;5073836;28;20394;-68
2021/12/15 04:15:57;;;;;;;5.05;2.53;;;22.00;35.80;;;;;;5056358;28;20471;-68
2021/12/15 04:18:24;;;;;;;5.38;3.58;;;22.10;35.80;;;;;;5073811;28;20399;-68
2021/12/15 04:20:51;;;;;;;6.05;3.20;;;22.10;37.20;;;;;;5073604;28;20392;-68
2021/12/15 04:23:19;;;;;;;4.60;3.30;;;22.20;37.30;;;;;;5056273;28;20392;-69
2021/12/15 04:25:48;;;;;;;4.88;3.35;;;22.20;37.60;;;;;;5074563;28;20387;-68
2021/12/15 04:28:33;;;;;;;5.30;3.38;;;22.10;37.00;;;;;;5073756;28;20424;-68
2021/12/15 04:31:01;;;;;;;8.48;3.00;;;22.00;36.90;;;;;;5076235;28;20376;-68
2021/12/15 04:33:38;;;;;;;7.10;3.38;;;22.00;36.70;;;;;;5057428;28;20400;-68
2021/12/15 04:36:07;;;;;;;8.20;3.57;;;22.00;37.00;;;;;;5055557;28;20388;-68
2021/12/15 04:38:34;;;;;;;9.30;3.40;;;22.10;37.10;;;;;;5072706;28;20395;-68
2021/12/15 04:41:04;;;;;;;9.27;3.22;;;22.10;37.50;;;;;;5073003;28;20408;-68
2021/12/15 04:43:33;;;;;;;5.35;3.20;;;22.20;37.80;;;;;;5073560;28;20402;-68
2021/12/15 04:46:00;;;;;;;7.97;3.10;;;22.20;37.40;;;;;;5073640;28;20387;-68
2021/12/15 04:48:26;;;;;;;4.72;2.65;;;22.10;37.20;;;;;;5055003;28;20407;-68
2021/12/15 04:50:51;;;;;;;5.28;2.97;;;22.10;37.20;;;;;;5072872;28;20410;-69
2021/12/15 04:53:17;;;;;;;9.30;3.30;;;22.10;37.00;;;;;;5073376;28;20445;-69
2021/12/15 04:55:43;;;;;;;4.93;2.95;;;22.10;36.90;;;;;;5073599;28;20415;-68
2021/12/15 04:58:11;;;;;;;7.13;3.00;;;22.10;36.90;;;;;;5073300;28;20483;-68
2021/12/15 05:00:43;;;;;;;8.00;3.20;;;22.10;36.70;;;;;;5073192;28;20392;-68
2021/12/15 05:03:09;;;;;;;5.10;3.00;;;22.10;36.60;;;;;;5073179;28;20508;-68
2021/12/15 05:05:37;;;;;;;4.25;2.97;;;22.10;36.20;;;;;;5073235;28;20486;-69
2021/12/15 05:08:04;;;;;;;6.15;3.40;;;22.10;36.30;;;;;;5073179;28;20412;-69
2021/12/15 05:10:29;;;;;;;5.25;3.20;;;22.10;36.30;;;;;;5072601;28;20453;-69
2021/12/15 05:12:57;;;;;;;5.53;3.10;;;22.00;36.10;;;;;;5072602;28;20779;-69
2021/12/15 05:15:24;;;;;;;4.20;2.90;;;22.00;35.90;;;;;;5073026;28;20384;-69
2021/12/15 05:17:50;;;;;;;5.05;3.25;;;22.10;35.90;;;;;;5073037;28;20395;-68
2021/12/15 05:20:18;;;;;;;4.53;2.97;;;22.10;35.70;;;;;;5072997;28;20379;-68
2021/12/15 05:22:43;;;;;;;4.00;3.10;;;22.10;35.60;;;;;;5072395;28;20721;-67
2021/12/15 05:25:10;;;;;;;6.40;3.72;;;22.10;35.90;;;;;;5072664;28;20383;-68
2021/12/15 05:27:37;;;;;;;5.63;3.30;;;22.00;36.10;;;;;;5073843;28;20439;-70
2021/12/15 05:30:09;;;;;;;5.95;3.60;;;22.00;36.70;;;;;;5072684;28;20384;-69
2021/12/15 05:32:35;;;;;;;7.43;3.23;;;22.00;36.70;;;;;;5069766;28;20526;-68
2021/12/15 05:35:01;;;;;;;5.25;3.35;;;22.00;36.50;;;;;;5090474;28;20425;-69
2021/12/15 05:37:28;;;;;;;7.78;3.53;;;22.10;36.70;;;;;;5075329;28;20400;-69
2021/12/15 05:39:54;;;;;;;6.60;3.40;;;22.00;37.10;;;;;;5084342;28;20443;-69
2021/12/15 05:42:22;;;;;;;5.80;3.45;;;22.00;37.20;;;;;;5078640;28;20420;-70
2021/12/15 05:44:49;;;;;;;7.00;3.10;;;22.10;37.10;;;;;;5078561;28;20399;-69
2021/12/15 05:47:16;;;;;;;6.28;3.50;;;22.00;36.40;;;;;;5093243;28;20382;-69
2021/12/15 05:49:42;;;;;;;5.28;3.53;;;22.10;36.60;;;;;;5082768;28;20693;-71
2021/12/15 05:52:08;;;;;;;4.88;3.53;;;22.00;36.30;;;;;;5071800;28;20399;-70
2021/12/15 05:54:35;;;;;;;6.55;3.50;;;22.00;36.10;;;;;;5052554;28;20421;-70
2021/12/15 05:57:01;;;;;;;7.25;3.50;;;22.00;36.00;;;;;;5071340;28;20426;-71
2021/12/15 05:59:27;;;;;;;6.55;3.75;;;22.00;36.30;;;;;;5071299;28;20423;-70
2021/12/15 06:01:53;;;;;;;5.70;3.50;;;22.00;36.90;;;;;;5071405;28;20387;-70
2021/12/15 06:04:19;;;;;;;7.65;3.88;;;22.10;37.00;;;;;;5053702;28;20387;-69
2021/12/15 06:06:45;;;;;;;10.60;3.80;;;22.00;36.80;;;;;;5071190;28;20468;-68
2021/12/15 06:09:12;;;;;;;5.93;3.63;;;22.00;36.80;;;;;;5053339;28;20514;-70
2021/12/15 06:11:39;;;;;;;6.53;3.88;;;22.10;36.70;;;;;;5071485;28;20816;-71
2021/12/15 06:14:06;;;;;;;6.45;3.60;;;22.00;36.50;;;;;;5053471;28;20467;-68
2021/12/15 06:16:33;;;;;;;6.40;3.70;;;22.00;36.50;;;;;;5071386;28;20384;-70
2021/12/15 06:19:00;;;;;;;6.78;4.07;;;22.00;36.60;;;;;;5052963;28;20396;-70
2021/12/15 06:21:26;;;;;;;5.05;3.97;;;22.10;36.40;;;;;;5053288;28;20484;-70
2021/12/15 06:23:52;;;;;;;5.20;3.80;;;22.10;36.30;;;;;;5071287;28;20823;-71
2021/12/15 06:26:19;;;;;;;6.68;4.03;;;22.10;36.10;;;;;;5067734;28;20865;-71
2021/12/15 06:28:46;;;;;;;5.88;3.67;;;22.00;35.80;;;;;;5068571;28;20806;-70
2021/12/15 06:31:15;;;;;;;5.60;3.95;;;22.00;36.00;;;;;;5053175;28;20824;-70
2021/12/15 06:33:43;;;;;;;6.57;4.00;;;22.00;35.90;;;;;;5071069;28;20394;-70
2021/12/15 06:36:09;;;;;;;6.28;4.90;;;22.10;35.90;;;;;;5071020;28;20399;-70
2021/12/15 06:38:38;;;;;;;8.05;5.85;;;22.10;36.00;;;;;;5071028;28;20383;-70
2021/12/15 06:41:07;;;;;;;5.80;4.50;;;22.10;37.40;;;;;;5070549;28;20400;-71
2021/12/15 06:43:35;;;;;;;6.15;4.60;;;22.10;36.80;;;;;;5071010;28;20388;-70
2021/12/15 06:59:55;;;;;;;5.65;4.70;;;22.00;36.00;;;;;;5070916;28;20525;-71
2021/12/15 07:02:21;;;;;;;5.28;4.47;;;22.00;36.10;;;;;;5059606;28;20756;-71
2021/12/15 07:04:47;;;;;;;5.38;3.97;;;22.00;35.80;;;;;;5045221;28;20891;-72
2021/12/15 07:07:13;;;;;;;5.53;4.68;;;22.00;35.80;;;;;;5060607;28;20393;-71
2021/12/15 07:09:39;;;;;;;5.00;4.00;;;22.00;35.80;;;;;;5052677;28;20477;-71
2021/12/15 07:12:05;;;;;;;5.30;4.22;;;22.00;35.70;;;;;;5070841;28;20871;-71
2021/12/15 07:14:32;;;;;;;4.65;4.10;;;22.00;35.70;;;;;;5051861;28;20748;-72
2021/12/15 07:16:59;;;;;;;5.45;4.40;;;22.00;35.70;;;;;;5070203;28;20910;-71
2021/12/15 07:22:07;;;;;;;4.88;4.22;;;22.00;35.60;;;;;;5071034;28;20398;-70
2021/12/15 07:24:34;;;;;;;4.90;4.03;;;22.00;35.70;;;;;;5070587;28;20410;-70
2021/12/15 07:27:02;;;;;;;5.82;4.28;;;22.00;35.60;;;;;;5051979;28;20845;-71
2021/12/15 07:29:29;;;;;;;5.38;4.60;;;21.90;35.50;;;;;;5052443;28;20749;-71
2021/12/15 07:31:56;;;;;;;6.35;4.43;;;22.00;35.50;;;;;;5070543;28;20860;-71
2021/12/15 07:34:21;;;;;;;5.20;4.50;;;22.00;35.50;;;;;;5052648;28;20400;-72
2021/12/15 07:36:47;;;;;;;5.10;4.20;;;21.90;35.40;;;;;;5070377;28;20474;-71
2021/12/15 07:39:15;;;;;;;4.70;4.13;;;21.90;35.40;;;;;;5070174;28;20426;-71
2021/12/15 07:41:49;;;;;;;4.68;4.15;;;21.90;35.40;;;;;;5070466;28;20394;-71
2021/12/15 07:44:16;;;;;;;5.18;4.43;;;21.90;35.40;;;;;;5070416;28;20384;-71
2021/12/15 07:46:47;;;;;;;5.32;4.43;;;21.90;35.40;;;;;;5070105;28;20482;-71
2021/12/15 07:49:13;;;;;;;5.25;4.07;;;21.90;35.40;;;;;;5070031;28;20461;-71
2021/12/15 07:51:43;;;;;;;4.63;4.13;;;21.90;35.30;;;;;;5052460;28;20384;-70
2021/12/15 07:54:08;;;;;;;4.63;4.03;;;21.80;35.30;;;;;;5052564;28;20775;-71
2021/12/15 07:56:34;;;;;;;4.82;4.30;;;21.80;35.30;;;;;;5070467;28;20860;-71
2021/12/15 07:59:00;;;;;;;5.10;4.60;;;21.80;35.30;;;;;;5051994;28;20396;-70
2021/12/15 08:01:26;;;;;;;5.20;4.20;;;21.80;35.30;;;;;;5070321;28;20392;-71
2021/12/15 08:03:54;;;;;;;4.40;4.00;;;21.80;35.30;;;;;;5070268;28;20757;-71
2021/12/15 08:06:21;;;;;;;5.65;4.93;;;21.80;35.30;;;;;;5070215;28;20871;-71
2021/12/15 08:08:47;;;;;;;4.88;4.32;;;21.80;35.30;;;;;;5051506;28;20788;-69
2021/12/15 08:11:13;;;;;;;5.45;4.30;;;21.80;35.30;;;;;;5069912;28;20380;-71
2021/12/15 08:13:39;;;;;;;4.60;4.10;;;21.80;35.30;;;;;;5071436;28;20388;-71
2021/12/15 08:16:05;;;;;;;4.80;4.20;;;21.80;35.30;;;;;;5073642;28;20390;-70
2021/12/15 08:18:31;;;;;;;4.53;4.05;;;21.80;35.30;;;;;;5073724;28;20458;-70
2021/12/15 08:20:58;;;;;;;4.85;4.18;;;21.70;35.20;;;;;;5073362;28;20376;-70
2021/12/15 08:23:25;;;;;;;5.38;4.40;;;21.70;35.20;;;;;;5073484;28;20399;-70
2021/12/15 08:25:51;;;;;;;4.90;4.40;;;21.80;35.20;;;;;;5073866;28;20412;-72
2021/12/15 08:28:17;;;;;;;5.32;4.43;;;21.80;35.90;;;;;;5066470;28;20425;-71
2021/12/15 08:30:45;;;;;;;4.38;3.88;;;21.80;35.30;;;;;;5042607;28;20377;-71
2021/12/15 08:33:16;;;;;;;5.10;4.00;;;21.80;35.30;;;;;;5042526;28;20498;-69
2021/12/15 08:35:46;;;;;;;4.82;3.72;;;21.80;35.30;;;;;;5040298;28;20790;-69
2021/12/15 08:38:12;;;;;;;4.90;4.13;;;21.80;35.30;;;;;;5042742;28;20409;-68
2021/12/15 08:40:40;;;;;;;4.15;3.72;;;21.80;35.30;;;;;;5024617;28;20391;-65
2021/12/15 08:43:07;;;;;;;4.55;4.05;;;21.80;35.30;;;;;;5071112;28;20891;-69
2021/12/15 08:45:36;;;;;;;4.80;3.95;;;21.80;35.30;;;;;;5059475;28;20880;-69
2021/12/15 08:48:04;;;;;;;4.45;3.90;;;21.80;35.20;;;;;;5052962;28;20448;-69
2021/12/15 08:50:33;;;;;;;4.47;3.88;;;21.80;35.20;;;;;;5053095;28;20382;-69
2021/12/15 08:53:02;;;;;;;4.60;4.10;;;21.80;35.20;;;;;;5052502;28;20378;-69
2021/12/15 08:55:28;;;;;;;4.43;4.00;;;21.70;35.20;;;;;;5052983;28;20504;-69
2021/12/15 08:57:57;;;;;;;4.65;4.20;;;21.70;35.20;;;;;;5053810;28;20385;-69
2021/12/15 09:00:25;;;;;;;4.65;3.90;;;21.70;35.20;;;;;;5052851;28;20388;-70
2021/12/15 09:02:52;;;;;;;4.57;4.18;;;21.70;35.10;;;;;;5062794;28;20394;-69
2021/12/15 09:05:20;;;;;;;4.82;3.92;;;21.70;35.10;;;;;;5072452;28;20388;-68
2021/12/15 09:07:56;;;;;;;4.63;4.10;;;21.80;35.20;;;;;;5054701;28;20416;-69
2021/12/15 09:10:24;;;;;;;4.53;4.13;;;21.80;35.20;;;;;;5076335;28;20384;-69
2021/12/15 09:12:50;;;;;;;4.35;3.95;;;21.70;35.10;;;;;;5065761;28;20396;-69
2021/12/15 09:15:17;;;;;;;4.45;4.05;;;21.70;35.10;;;;;;5073577;28;20376;-68
2021/12/15 09:17:43;;;;;;;4.25;3.80;;;21.70;35.10;;;;;;5072607;28;20376;-70
2021/12/15 09:20:13;;;;;;;4.18;3.70;;;21.70;35.10;;;;;;5072363;28;20380;-70
2021/12/15 09:22:39;;;;;;;4.97;4.13;;;21.70;35.10;;;;;;5072534;28;20392;-71
2021/12/15 09:25:08;;;;;;;4.63;3.70;;;21.70;35.10;;;;;;5071614;28;20487;-69
2021/12/15 09:27:34;;;;;;;4.20;3.80;;;21.70;35.10;;;;;;5072347;28;20404;-70
2021/12/15 09:30:00;;;;;;;4.37;3.70;;;21.70;35.10;;;;;;5070676;28;20398;-70
2021/12/15 09:32:26;;;;;;;4.30;3.80;;;21.70;35.10;;;;;;5071166;28;20467;-69
2021/12/15 09:34:53;;;;;;;4.80;3.97;;;21.70;35.10;;;;;;5070922;28;20423;-69
2021/12/15 09:37:19;;;;;;;4.78;4.00;;;21.70;35.00;;;;;;5071528;28;20852;-68
2021/12/15 09:39:45;;;;;;;4.18;3.78;;;21.70;35.10;;;;;;5072809;28;20399;-69
2021/12/15 09:42:16;;;;;;;4.30;3.90;;;21.70;35.10;;;;;;5073541;28;20551;-67
2021/12/15 09:44:43;;;;;;;4.13;3.53;;;21.70;35.00;;;;;;5073829;28;20421;-68
2021/12/15 10:04:07;;;;;;;5.03;3.90;;;21.60;35.10;;;;;;5071652;28;20414;-68
2021/12/15 10:19:56;;;;;;;3.97;3.55;;;21.60;35.10;;;;;;5071328;28;20406;-68
2021/12/15 10:25:14;;;;;;;4.07;3.67;;;21.60;35.20;;;;;;5070990;28;20445;-67
2021/12/15 10:27:50;;;;;;;4.40;3.83;;;21.60;35.20;;;;;;5070871;28;20817;-68
2021/12/15 10:30:30;;;;;;;4.80;3.78;;;21.60;35.20;;;;;;5068441;28;20398;-68
2021/12/15 10:33:05;;;;;;;4.60;3.70;;;21.60;35.10;;;;;;5068417;28;20741;-68
2021/12/15 10:35:34;;;;;;;3.92;3.53;;;21.60;35.10;;;;;;5067211;28;20395;-68
2021/12/15 10:38:18;;;;;;;4.30;3.40;;;21.60;35.10;;;;;;5069191;28;20395;-68
2021/12/15 10:41:08;;;;;;;4.55;3.60;;;21.60;35.10;;;;;;5068071;28;20400;-69
2021/12/15 10:43:38;;;;;;;4.70;3.63;;;21.60;35.10;;;;;;5050929;28;20408;-67
2021/12/15 10:46:08;;;;;;;3.97;3.42;;;21.60;35.10;;;;;;5033193;28;20385;-68
2021/12/15 10:48:44;;;;;;;4.15;3.75;;;21.60;35.10;;;;;;5051087;28;20496;-69
2021/12/15 10:51:24;;;;;;;4.57;3.70;;;21.60;35.00;;;;;;5050620;28;20378;-69
2021/12/15 10:53:52;;;;;;;4.00;3.50;;;21.60;35.00;;;;;;5050829;28;20397;-69
2021/12/15 10:56:21;;;;;;;3.38;3.08;;;21.60;35.00;;;;;;5050717;28;20386;-70
2021/12/15 10:58:55;;;;;;;4.03;3.50;;;21.60;35.00;;;;;;5050954;28;21005;-69
2021/12/15 11:01:30;;;;;;;4.40;3.55;;;21.60;35.00;;;;;;5032730;28;20893;-69
2021/12/15 11:03:57;;;;;;;4.25;3.40;;;21.60;35.00;;;;;;5051789;28;20472;-68
2021/12/15 11:06:27;;;;;;;4.60;3.60;;;21.60;35.00;;;;;;5051543;28;20450;-69
2021/12/15 11:09:11;;;;;;;3.88;3.25;;;21.60;35.00;;;;;;5052034;28;20478;-68
2021/12/15 11:11:37;;;;;;;4.20;3.72;;;21.60;35.00;;;;;;5050811;28;20431;-69
2021/12/15 11:14:26;;;;;;;4.13;3.38;;;21.50;35.00;;;;;;5050727;28;20742;-69
2021/12/15 11:17:08;;;;;;;4.03;3.45;;;21.60;35.00;;;;;;5032685;28;20401;-69
2021/12/15 11:19:48;;;;;;;3.78;3.22;;;21.50;34.90;;;;;;5050464;28;20393;-70
2021/12/15 11:22:44;;;;;;;4.00;3.30;;;21.50;34.90;;;;;;5050465;28;20418;-68
2021/12/15 11:25:17;;;;;;;3.90;3.47;;;21.50;34.90;;;;;;5050234;28;20452;-69
2021/12/15 11:27:42;;;;;;;3.92;3.33;;;21.50;34.90;;;;;;5032765;28;20406;-70
2021/12/15 11:30:14;;;;;;;4.40;3.20;;;21.60;34.90;;;;;;5050447;28;20805;-69
2021/12/15 11:32:47;;;;;;;3.35;2.80;;;21.60;34.90;;;;;;5050548;28;20382;-71
2021/12/15 11:35:20;;;;;;;3.47;3.10;;;21.50;34.90;;;;;;5050737;28;20408;-67
2021/12/15 11:38:10;;;;;;;4.00;2.90;;;21.50;34.90;;;;;;5033097;28;20877;-70
2021/12/15 11:40:43;;;;;;;3.15;2.72;;;21.50;34.90;;;;;;5050397;28;20404;-69
2021/12/15 11:43:36;;;;;;;3.30;2.92;;;21.50;34.90;;;;;;5050121;28;20464;-69
2021/12/15 11:46:04;;;;;;;3.30;3.00;;;21.50;34.90;;;;;;5050402;28;20407;-69
2021/12/15 11:48:33;;;;;;;3.33;3.03;;;21.50;34.90;;;;;;5053160;28;20423;-70
2021/12/15 11:51:05;;;;;;;3.33;2.97;;;21.50;34.90;;;;;;5054001;28;20386;-69
2021/12/15 11:53:35;;;;;;;3.25;2.80;;;21.50;34.90;;;;;;5036468;28;20784;-69
2021/12/15 11:56:23;;;;;;;3.17;2.67;;;21.50;34.90;;;;;;5054285;28;20417;-70
2021/12/15 11:58:57;;;;;;;3.55;3.00;;;21.50;34.90;;;;;;5054062;28;20393;-67
2021/12/15 12:02:08;;;;;;;3.28;2.75;;;21.50;34.90;;;;;;5053919;28;20435;-69
2021/12/15 12:04:36;;;;;;;2.60;2.30;;;21.50;34.90;;;;;;5007552;28;20385;-70
2021/12/15 12:07:23;;;;;;;3.35;2.92;;;21.50;34.80;;;;;;5031319;28;20401;-70
2021/12/15 12:10:00;;;;;;;2.88;2.58;;;21.50;34.90;;;;;;5053675;28;20427;-70
2021/12/15 12:12:32;;;;;;;3.42;2.58;;;21.50;34.80;;;;;;5053818;28;20563;-69
2021/12/15 12:14:59;;;;;;;3.00;2.47;;;21.50;34.80;;;;;;5035754;28;20723;-69
2021/12/15 12:17:32;;;;;;;4.27;2.80;;;21.60;34.90;;;;;;5052007;28;20609;-70
2021/12/15 12:20:03;;;;;;;4.15;2.80;;;21.60;35.10;;;;;;5044797;28;20406;-68
2021/12/15 12:22:31;;;;;;;4.43;3.00;;;21.60;36.10;;;;;;5052737;28;20393;-70
2021/12/15 12:25:01;;;;;;;4.30;3.03;;;21.60;36.40;;;;;;5053275;28;20386;-70
2021/12/15 12:27:31;;;;;;;4.90;3.20;;;21.70;36.90;;;;;;5054187;28;20897;-69
2021/12/15 12:29:58;;;;;;;6.30;3.25;;;21.70;37.60;;;;;;5052533;28;20472;-70
2021/12/15 12:32:24;;;;;;;4.65;3.10;;;21.70;38.60;;;;;;5043550;28;20424;-69
2021/12/15 12:34:52;;;;;;;6.88;3.20;;;21.70;37.10;;;;;;5051799;28;20901;-69
2021/12/15 12:37:19;;;;;;;6.90;4.75;;;21.80;37.40;;;;;;5052753;28;20393;-67
2021/12/15 12:39:48;;;;;;;7.00;4.00;;;21.80;37.90;;;;;;5044156;28;20455;-68
2021/12/15 12:42:29;;;;;;;10.20;4.78;;;21.80;37.80;;;;;;5043760;28;20467;-68
2021/12/15 12:45:18;;;;;;;8.27;4.30;;;21.90;37.80;;;;;;5040976;28;20407;-68
2021/12/15 12:48:27;;;;;;;7.00;5.20;;;21.90;37.60;;;;;;5053121;28;20844;-69
2021/12/15 12:57:55;;;;;;;7.60;4.40;;;21.90;37.30;;;;;;5054432;28;20393;-68
2021/12/15 12:59:36;;;;;;;5.43;3.75;;;21.80;36.60;;;;;;5052567;28;20427;-70
2021/12/15 13:02:09;;;;;;;6.00;4.07;;;21.80;36.50;;;;;;5052861;28;20746;-70
2021/12/15 13:04:43;;;;;;;4.75;3.33;;;21.80;36.10;;;;;;5053807;28;20390;-69
2021/12/15 13:07:11;;;;;;;8.70;3.63;;;21.80;36.40;;;;;;5051104;28;20394;-69
2021/12/15 13:09:48;;;;;;;7.45;3.17;;;21.80;36.90;;;;;;5052847;28;20417;-69
2021/12/15 13:12:21;;;;;;;6.43;3.30;;;21.80;37.00;;;;;;5046162;28;20402;-69
2021/12/15 13:14:47;;;;;;;10.65;3.15;;;21.80;37.20;;;;;;5033587;28;20465;-69
2021/12/15 13:17:24;;;;;;;9.85;3.47;;;21.80;37.00;;;;;;5044728;28;20808;-67
2021/12/15 13:19:51;;;;;;;8.10;2.85;;;21.90;36.90;;;;;;5052121;28;20484;-69
2021/12/15 13:22:41;;;;;;;7.38;2.80;;;21.90;36.90;;;;;;5051968;28;20746;-69
2021/12/15 13:31:10;;;;;;;6.00;2.55;;;21.90;36.40;;;;;;5051530;28;20381;-69
2021/12/15 13:33:38;;;;;;;6.70;2.63;;;21.80;36.20;;;;;;5052202;28;20389;-70
2021/12/15 13:36:11;;;;;;;7.00;2.60;;;21.90;36.30;;;;;;5051946;28;20455;-68
2021/12/15 13:38:48;;;;;;;5.20;2.53;;;21.90;36.20;;;;;;5050911;28;20449;-70
2021/12/15 13:44:15;;;;;;;5.00;2.90;;;21.90;36.00;;;;;;5072363;28;20481;-69
2021/12/15 13:47:01;;;;;;;4.57;2.35;;;21.90;36.10;;;;;;5064720;28;20518;-69
2021/12/15 13:49:39;;;;;;;3.50;2.22;;;21.80;36.00;;;;;;5071419;28;20420;-69
2021/12/15 13:52:29;;;;;;;4.28;2.50;;;21.90;36.00;;;;;;5071583;28;20479;-69
2021/12/15 13:55:03;;;;;;;5.93;2.58;;;21.80;35.90;;;;;;5071828;28;20445;-69
2021/12/15 13:57:39;;;;;;;4.47;2.45;;;21.90;35.90;;;;;;5071280;28;20834;-69
2021/12/15 14:00:16;;;;;;;4.10;2.50;;;21.80;35.80;;;;;;5071771;28;20469;-69
2021/12/15 14:03:13;;;;;;;4.90;2.58;;;21.90;36.00;;;;;;5053698;28;20392;-69
2021/12/15 14:05:47;;;;;;;4.22;2.50;;;21.90;35.90;;;;;;5071517;28;20391;-69
2021/12/15 14:08:56;;;;;;;4.00;2.25;;;21.90;35.90;;;;;;5052734;28;20411;-69
2021/12/15 14:11:34;;;;;;;3.08;2.30;;;21.90;35.80;;;;;;5069425;28;20434;-70
2021/12/15 14:14:06;;;;;;;3.63;2.53;;;21.80;35.80;;;;;;5070828;28;20486;-69
2021/12/15 14:16:34;;;;;;;3.53;2.47;;;21.80;35.70;;;;;;5071088;28;20462;-70
2021/12/15 14:19:05;;;;;;;4.00;2.42;;;21.80;35.60;;;;;;5052709;28;20951;-70
2021/12/15 14:21:32;;;;;;;3.85;2.30;;;21.90;35.50;;;;;;5070746;28;20417;-70
2021/12/15 14:23:58;;;;;;;4.87;2.23;;;21.80;35.30;;;;;;5071212;28;20473;-69
2021/12/15 14:26:28;;;;;;;4.93;2.60;;;21.80;35.60;;;;;;5043945;28;20433;-70
2021/12/15 14:28:59;;;;;;;3.70;2.47;;;21.80;35.60;;;;;;5051248;28;20416;-70
2021/12/15 14:31:28;;;;;;;3.25;2.17;;;21.80;35.60;;;;;;5068931;28;20871;-70
2021/12/15 14:33:57;;;;;;;3.45;2.33;;;21.80;35.40;;;;;;5065645;28;20766;-70
2021/12/15 14:36:29;;;;;;;5.93;2.42;;;21.80;36.00;;;;;;5067091;28;20470;-70